Richmond, Maine
Current Conditions -  °F | °C
As of 4:53 PM on Friday 19 Dec 2014 (Local Time) from KIWI Reporting Station
Clear Clear  
Wind Chill: 30°   Ceiling: Unl
Heat Index: 30°   Visibility: 10mi
Dew Point: 22°   Wind: 0mph
Humidity: 72%   Direction: NA
Pressure: 29.99"   Gusts: NA
Location:  44.09°N, 69.8°W
Report Text: KIWI 192153Z AUTO 00000KT 10SM CLR M01/M06 A2999 RMK AO2 SLP157 T10111056
Loading
Personal Weather Stations






























Interactive Weather Map New forecast layout! Learn more

10-Day Weather Forecast

Advertisements
Track Severe Weather on mobile